Brookdale, New Jersey
Current Conditions -  °F | °C
As of 1:53 PM on Sunday 21 Dec 2014 (Local Time) from KCDW Reporting Station
Overcast Overcast  
Wind Chill: 30°   Ceiling: 2000
Heat Index: 34°   Visibility: 10mi
Dew Point: 26°   Wind: 5mph
Humidity: 73%   Direction: NA
Pressure: 30.29"   Gusts: NA
Location:  40.8099°N, 74.187°W
Report Text: KCDW 211853Z VRB04KT 10SM BKN020 OVC027 01/M03 A3029 RMK AO2 SLP265 T00111033
Loading
Personal Weather Stations






























Interactive Weather Map New forecast layout! Learn more

10-Day Weather Forecast

Advertisements
Track Severe Weather on mobile